EDLW Airport Information

Runway Information
Runway 06 Length 6562 ft width 148 ft
Elevation 418 ft Threshold 984 ft Heading 61
Runway 24 Length 6562 ft Width 148 ft
Elevation 401 ft Threshold 984 ft Heading 241
Airport Frequencies
Type AFIS Name LANGEN INF Frequency 129.875 MHZ
Type APP Name LANGEN RAD Frequency 125.225 MHZ
Type ATIS Name ATIS Frequency 125.125 MHZ
Type GND Name GND Frequency 121.825 MHZ
Type TWR Name TWR Frequency 134.175 MHZ
Airport Navaids
Type VOR-DME Name Dortmund Frequency 112700 KHZ
Type VOR-DME Name Wickede Frequency 108650 KHZ
Type NDB Name Dortmund Frequency 357 KHZ
Airport Weather Information & NOTAM
ADDS - METARS form results

(1847 UTC 27 June 2022)
Data provider http://aviationweather.gov/metar/data/
 
METAR text: EDLW 271820Z 22006KT 9999 SCT009 15/14 Q1019
Conditions at: EDLW (DORTMUND/WICKEDE, DE) observed 1820 UTC 27 June 2022
Temperature: 15.0°C (59°F)
Dewpoint: 14.0°C (57°F) [RH = 94%]
Pressure (altimeter): 30.09 inches Hg (1019.0 mb)
Winds: from the SW (220 degrees) at 7 MPH (6 knots; 3.1 m/s)
Visibility: 6 or more miles (10+ km)
Ceiling: at least 12,000 feet AGL
Clouds: scattered clouds at 900 feet AGL
Weather: no significant weather observed at this time

METAR text: EDLW 271750Z 24006KT 9999 FEW012 15/14 Q1018
Conditions at: EDLW (DORTMUND/WICKEDE, DE) observed 1750 UTC 27 June 2022
Temperature: 15.0°C (59°F)
Dewpoint: 14.0°C (57°F) [RH = 94%]
Pressure (altimeter): 30.06 inches Hg (1018.0 mb)
Winds: from the WSW (240 degrees) at 7 MPH (6 knots; 3.1 m/s)
Visibility: 6 or more miles (10+ km)
Ceiling: at least 12,000 feet AGL
Clouds: few clouds at 1200 feet AGL
Weather: no significant weather observed at this time

Forecast for: EDLW (DORTMUND/WICKEDE, DE)
Text: TAF EDLW 271700Z 2718/2818 24005KT 9999 FEW010
Forecast period: 1800 to 2000 UTC 27 June 2022
Forecast type: FROM: standard forecast or significant change
Winds: from the WSW (240 degrees) at 6 MPH (5 knots; 2.6 m/s)
Visibility: 6 or more miles (10+ km)
Ceiling: at least 12,000 feet AGL
Clouds: few clouds at 1000 feet AGL
Weather: no significant weather forecast for this period
Text: BECMG 2720/2723 VRB03KT
Forecast period: 2000 UTC 27 June 2022 to 1800 UTC 28 June 2022
Forecast type: BECOMING: Conditions expected to become as follows by 2300 UTC 27 June 2022
Winds: variable direction winds at 3 MPH (3 knots; 1.5 m/s)
Visibility: 6 or more miles (10+ km)
Ceiling: at least 12,000 feet AGL
Clouds: few clouds at 1000 feet AGL
Weather: no significant weather forecast for this period